createdAt,value
2022-09-23T00:00:27.067Z,0.00
2022-09-23T00:01:27.066Z,0.00
2022-09-23T00:02:27.086Z,0.00
2022-09-23T00:03:27.025Z,0.00
2022-09-23T00:04:27.018Z,0.00
2022-09-23T00:05:27.293Z,0.00
2022-09-23T00:06:26.976Z,0.00
2022-09-23T00:07:26.953Z,0.00
2022-09-23T00:08:26.953Z,0.00
2022-09-23T00:09:26.932Z,0.00
2022-09-23T00:10:26.938Z,0.00
2022-09-23T00:11:27.188Z,0.00
2022-09-23T00:12:26.916Z,0.00
2022-09-23T00:13:26.884Z,0.00
2022-09-23T00:14:26.883Z,0.00
2022-09-23T00:15:27.157Z,0.00
2022-09-23T00:16:26.889Z,0.00
2022-09-23T00:17:26.837Z,0.00
2022-09-23T00:18:27.054Z,0.00
2022-09-23T00:19:26.816Z,0.00
2022-09-23T00:20:26.806Z,0.00
2022-09-23T00:21:26.794Z,0.00
2022-09-23T00:22:26.787Z,0.00
2022-09-23T00:23:27.028Z,0.00
2022-09-23T00:24:26.777Z,0.00
2022-09-23T00:25:26.747Z,0.00
2022-09-23T00:26:26.752Z,0.00
2022-09-23T00:27:26.729Z,0.00
2022-09-23T00:28:27.041Z,0.00
2022-09-23T00:29:27.018Z,0.00
2022-09-23T00:30:26.743Z,0.00
2022-09-23T00:31:26.681Z,0.00
2022-09-23T00:32:26.691Z,0.00
2022-09-23T00:33:26.649Z,0.00
2022-09-23T00:34:26.842Z,0.00
2022-09-23T00:35:26.891Z,0.00
2022-09-23T00:36:26.623Z,0.00
2022-09-23T00:37:26.610Z,0.00
2022-09-23T00:38:26.614Z,0.00
2022-09-23T00:39:26.593Z,0.00
2022-09-23T00:40:26.931Z,0.00
2022-09-23T00:41:26.564Z,0.00
2022-09-23T00:42:26.560Z,0.00
2022-09-23T00:43:26.534Z,0.00
2022-09-23T00:44:26.545Z,0.00
2022-09-23T00:45:26.757Z,0.00
2022-09-23T00:46:26.579Z,0.00
2022-09-23T00:47:26.506Z,0.00
2022-09-23T00:48:26.495Z,0.00
2022-09-23T00:49:26.483Z,0.00
2022-09-23T00:50:26.766Z,0.00
2022-09-23T00:51:26.456Z,0.00
2022-09-23T00:52:26.432Z,0.00
2022-09-23T00:53:26.415Z,0.00
2022-09-23T00:54:26.428Z,0.00
2022-09-23T00:55:26.716Z,0.00
2022-09-23T00:56:26.385Z,0.00
2022-09-23T00:57:26.389Z,0.00
2022-09-23T00:58:26.365Z,0.00
2022-09-23T00:59:26.368Z,0.00
2022-09-23T01:00:26.366Z,0.00
2022-09-23T01:01:26.358Z,0.00
2022-09-23T01:02:26.371Z,0.00
2022-09-23T01:03:26.304Z,0.00
2022-09-23T01:04:26.295Z,0.00
2022-09-23T01:05:26.310Z,0.00
2022-09-23T01:06:26.282Z,0.00
2022-09-23T01:07:26.270Z,0.00
2022-09-23T01:08:26.268Z,0.00
2022-09-23T01:09:26.290Z,0.00
2022-09-23T01:10:26.237Z,0.00
2022-09-23T01:11:26.229Z,0.00
2022-09-23T01:12:26.198Z,0.00
2022-09-23T01:13:26.202Z,0.00
2022-09-23T01:14:26.214Z,0.00
2022-09-23T01:15:26.186Z,0.00
2022-09-23T01:16:26.223Z,0.00
2022-09-23T01:17:26.139Z,0.00
2022-09-23T01:18:26.130Z,0.00
2022-09-23T01:19:26.119Z,0.00
2022-09-23T01:20:26.110Z,0.00
2022-09-23T01:21:26.402Z,0.00
2022-09-23T01:22:26.105Z,0.00
2022-09-23T01:23:26.084Z,0.00
2022-09-23T01:24:26.073Z,0.00
2022-09-23T01:25:26.062Z,0.00
2022-09-23T01:26:26.315Z,0.00
2022-09-23T01:27:26.034Z,0.00
2022-09-23T01:28:26.020Z,0.00
2022-09-23T01:29:26.019Z,0.00
2022-09-23T01:30:26.021Z,0.00
2022-09-23T01:31:25.971Z,0.00
2022-09-23T01:32:26.293Z,0.00
2022-09-23T01:33:25.962Z,0.00
2022-09-23T01:34:25.956Z,0.00
2022-09-23T01:35:25.935Z,0.00
2022-09-23T01:36:25.933Z,0.00
2022-09-23T01:37:26.165Z,0.00
2022-09-23T01:38:25.917Z,0.00
2022-09-23T01:39:25.913Z,0.00
2022-09-23T01:40:25.942Z,0.00
2022-09-23T01:41:25.869Z,0.00
2022-09-23T01:42:25.867Z,0.00
2022-09-23T01:43:25.856Z,0.00
2022-09-23T01:44:25.839Z,0.00
2022-09-23T01:45:25.814Z,0.00
2022-09-23T01:46:25.805Z,0.00
2022-09-23T01:47:25.807Z,0.00
2022-09-23T01:48:25.822Z,0.00
2022-09-23T01:49:25.798Z,0.00
2022-09-23T01:50:25.797Z,0.00
2022-09-23T01:51:25.792Z,0.00
2022-09-23T01:52:25.751Z,0.00
2022-09-23T01:53:25.721Z,0.00
2022-09-23T01:54:25.992Z,0.00
2022-09-23T01:55:26.011Z,0.00
2022-09-23T01:56:25.715Z,0.00
2022-09-23T01:57:25.679Z,0.00
2022-09-23T01:58:25.679Z,0.00
2022-09-23T01:59:25.862Z,0.00
2022-09-23T02:00:25.638Z,0.00
2022-09-23T02:01:25.739Z,0.00
2022-09-23T02:02:25.957Z,0.00
2022-09-23T02:03:25.599Z,0.00
2022-09-23T02:04:25.839Z,0.00
2022-09-23T02:05:25.913Z,0.00
2022-09-23T02:06:25.571Z,0.00
2022-09-23T02:07:25.560Z,0.00
2022-09-23T02:08:25.549Z,0.00
2022-09-23T02:09:25.831Z,0.00
2022-09-23T02:10:25.533Z,0.00
2022-09-23T02:11:25.780Z,0.00
2022-09-23T02:12:25.524Z,0.00
2022-09-23T02:13:25.502Z,0.00
2022-09-23T02:14:25.723Z,0.00
2022-09-23T02:15:25.476Z,0.00
2022-09-23T02:16:25.536Z,0.00
2022-09-23T02:17:25.486Z,0.00
2022-09-23T02:18:25.436Z,0.00
2022-09-23T02:19:25.684Z,0.00
2022-09-23T02:20:25.403Z,0.00
2022-09-23T02:21:25.392Z,0.00
2022-09-23T02:22:25.396Z,0.00
2022-09-23T02:23:25.508Z,0.00
2022-09-23T02:24:25.671Z,0.00
2022-09-23T02:25:25.354Z,0.00
2022-09-23T02:26:25.348Z,0.00
2022-09-23T02:27:25.338Z,0.00
2022-09-23T02:28:25.329Z,0.00
2022-09-23T02:29:25.548Z,0.00
2022-09-23T02:30:25.309Z,0.00
2022-09-23T02:31:25.307Z,0.00
2022-09-23T02:32:25.279Z,0.00
2022-09-23T02:33:25.255Z,0.00
2022-09-23T02:34:25.244Z,0.00
2022-09-23T02:35:25.543Z,0.00
2022-09-23T02:36:25.217Z,0.00
2022-09-23T02:37:25.508Z,0.00
2022-09-23T02:38:25.209Z,0.00
2022-09-23T02:39:25.202Z,0.00
2022-09-23T02:40:25.232Z,0.00
2022-09-23T02:41:25.165Z,0.00
2022-09-23T02:42:25.398Z,0.00
2022-09-23T02:43:25.138Z,0.00
2022-09-23T02:44:25.119Z,0.00
2022-09-23T02:45:25.130Z,0.00
2022-09-23T02:46:25.137Z,0.00
2022-09-23T02:47:25.123Z,0.00
2022-09-23T02:48:25.091Z,0.00
2022-09-23T02:49:25.069Z,0.00
2022-09-23T02:50:25.050Z,0.00
2022-09-23T02:51:25.060Z,0.00
2022-09-23T02:52:25.049Z,0.00
2022-09-23T02:53:25.031Z,0.00
2022-09-23T02:54:25.002Z,0.00
2022-09-23T02:55:25.013Z,0.00
2022-09-23T02:56:24.981Z,0.00
2022-09-23T02:57:25.304Z,0.00
2022-09-23T02:58:24.962Z,0.00
2022-09-23T02:59:24.952Z,0.00
2022-09-23T03:00:24.931Z,0.00
2022-09-23T03:01:25.048Z,0.00
2022-09-23T03:02:25.177Z,0.00
2022-09-23T03:03:24.916Z,0.00
2022-09-23T03:04:24.904Z,0.00
2022-09-23T03:05:24.904Z,0.00
2022-09-23T03:06:24.862Z,0.00
2022-09-23T03:07:25.142Z,0.00
2022-09-23T03:08:24.856Z,0.00
2022-09-23T03:09:24.834Z,0.00
2022-09-23T03:10:24.840Z,0.00
2022-09-23T03:11:24.805Z,0.00
2022-09-23T03:12:25.025Z,0.00
2022-09-23T03:13:29.174Z,0.00
2022-09-23T03:14:24.765Z,0.00
2022-09-23T03:15:24.778Z,0.00
2022-09-23T03:16:24.806Z,0.00
2022-09-23T03:17:25.056Z,0.00
2022-09-23T03:18:24.724Z,0.00
2022-09-23T03:19:24.728Z,0.00
2022-09-23T03:20:24.697Z,0.00
2022-09-23T03:21:24.701Z,0.00
2022-09-23T03:22:24.999Z,0.00
2022-09-23T03:23:24.978Z,0.00
2022-09-23T03:24:24.658Z,0.00
2022-09-23T03:25:24.645Z,0.00
2022-09-23T03:26:24.640Z,0.00
2022-09-23T03:27:24.633Z,0.00
2022-09-23T03:28:24.798Z,0.00
2022-09-23T03:29:24.597Z,0.00
2022-09-23T03:30:24.579Z,0.00
2022-09-23T03:31:24.624Z,0.00
2022-09-23T03:32:24.559Z,0.00
2022-09-23T03:33:28.396Z,0.00
2022-09-23T03:34:24.553Z,0.00
2022-09-23T03:35:24.541Z,0.00
2022-09-23T03:36:24.510Z,0.00
2022-09-23T03:37:24.523Z,0.00
2022-09-23T03:38:24.753Z,0.00
2022-09-23T03:39:24.479Z,0.00
2022-09-23T03:40:24.512Z,0.00
2022-09-23T03:41:24.473Z,0.00
2022-09-23T03:42:24.704Z,0.00
2022-09-23T03:43:24.431Z,0.00
2022-09-23T03:44:24.433Z,0.00
2022-09-23T03:45:24.493Z,0.00
2022-09-23T03:46:24.412Z,0.00
2022-09-23T03:47:24.712Z,0.00
2022-09-23T03:48:24.416Z,0.00
2022-09-23T03:49:24.385Z,0.00
2022-09-23T03:50:24.592Z,0.00
2022-09-23T03:51:24.365Z,0.00
2022-09-23T03:52:24.346Z,0.00
2022-09-23T03:53:24.327Z,0.00
2022-09-23T03:54:31.341Z,0.00
2022-09-23T03:55:24.634Z,0.00
2022-09-23T03:56:24.282Z,0.00
2022-09-23T03:57:24.274Z,0.00
2022-09-23T03:58:24.276Z,0.00
2022-09-23T03:59:24.262Z,0.00
2022-09-23T04:00:24.252Z,0.00
2022-09-23T04:01:24.564Z,0.00
2022-09-23T04:02:24.268Z,0.00
2022-09-23T04:03:24.217Z,0.00
2022-09-23T04:04:24.202Z,0.00
2022-09-23T04:05:24.198Z,0.00
2022-09-23T04:06:24.501Z,0.00
2022-09-23T04:07:24.167Z,0.00
2022-09-23T04:08:24.159Z,0.00
2022-09-23T04:09:24.126Z,0.00
2022-09-23T04:10:24.117Z,0.00
2022-09-23T04:11:24.407Z,0.00
2022-09-23T04:12:24.112Z,0.00
2022-09-23T04:13:24.087Z,0.00
2022-09-23T04:14:24.343Z,0.00
2022-09-23T04:15:24.080Z,0.00
2022-09-23T04:16:24.089Z,0.00
2022-09-23T04:17:24.310Z,0.00
2022-09-23T04:18:24.040Z,0.00
2022-09-23T04:19:24.030Z,0.00
2022-09-23T04:20:23.998Z,0.00
2022-09-23T04:21:23.990Z,0.00
2022-09-23T04:22:24.320Z,0.00
2022-09-23T04:23:23.982Z,0.00
2022-09-23T04:24:23.985Z,0.00
2022-09-23T04:25:24.168Z,0.00
2022-09-23T04:26:23.953Z,0.00
2022-09-23T04:27:23.924Z,0.00
2022-09-23T04:28:24.211Z,0.00
2022-09-23T04:29:23.901Z,0.00
2022-09-23T04:30:23.890Z,0.00
2022-09-23T04:31:24.243Z,0.00
2022-09-23T04:32:23.861Z,0.00
2022-09-23T04:33:23.859Z,0.00
2022-09-23T04:34:24.157Z,0.00
2022-09-23T04:35:23.845Z,0.00
2022-09-23T04:36:23.812Z,0.00
2022-09-23T04:37:23.805Z,0.00
2022-09-23T04:38:23.792Z,0.00
2022-09-23T04:39:24.081Z,0.00
2022-09-23T04:40:23.857Z,0.00
2022-09-23T04:41:23.761Z,0.00
2022-09-23T04:42:23.756Z,0.00
2022-09-23T04:43:23.756Z,0.00
2022-09-23T04:44:24.051Z,0.00
2022-09-23T04:45:23.715Z,0.00
2022-09-23T04:46:24.059Z,0.00
2022-09-23T04:47:23.684Z,0.00
2022-09-23T04:48:23.996Z,0.00
2022-09-23T04:49:23.680Z,0.00
2022-09-23T04:50:23.655Z,0.00
2022-09-23T04:51:23.659Z,0.00
2022-09-23T04:52:23.649Z,0.00
2022-09-23T04:53:23.886Z,0.00
2022-09-23T04:54:23.629Z,0.00
2022-09-23T04:55:23.915Z,0.00
2022-09-23T04:56:23.585Z,0.00
2022-09-23T04:57:23.592Z,4.00
2022-09-23T04:58:23.570Z,0.00
2022-09-23T04:59:23.548Z,0.00
2022-09-23T05:00:23.852Z,4.00
2022-09-23T05:01:23.619Z,0.00
2022-09-23T05:02:23.642Z,4.00
2022-09-23T05:03:23.506Z,4.00
2022-09-23T05:04:23.513Z,4.00
2022-09-23T05:05:23.789Z,4.00
2022-09-23T05:06:23.481Z,8.00
2022-09-23T05:07:23.471Z,8.00
2022-09-23T05:08:23.438Z,8.00
2022-09-23T05:09:23.443Z,8.00
2022-09-23T05:10:23.720Z,8.00
2022-09-23T05:11:23.414Z,12.00
2022-09-23T05:12:23.672Z,12.00
2022-09-23T05:13:23.400Z,12.00
2022-09-23T05:14:23.380Z,16.00
2022-09-23T05:15:23.611Z,20.00
2022-09-23T05:16:23.499Z,20.00
2022-09-23T05:17:23.357Z,20.00
2022-09-23T05:18:23.581Z,28.00
2022-09-23T05:19:23.336Z,28.00
2022-09-23T05:20:23.315Z,28.00
2022-09-23T05:21:23.302Z,28.00
2022-09-23T05:22:23.295Z,32.00
2022-09-23T05:23:23.588Z,36.00
2022-09-23T05:24:23.263Z,36.00
2022-09-23T05:25:23.502Z,40.00
2022-09-23T05:26:23.247Z,44.00
2022-09-23T05:27:23.224Z,48.00
2022-09-23T05:28:23.434Z,52.00
2022-09-23T05:29:23.215Z,56.00
2022-09-23T05:30:23.199Z,60.00
2022-09-23T05:31:23.217Z,64.00
2022-09-23T05:32:23.184Z,72.00
2022-09-23T05:33:23.168Z,76.00
2022-09-23T05:34:23.144Z,80.00
2022-09-23T05:35:23.135Z,88.00
2022-09-23T05:36:23.170Z,92.00
2022-09-23T05:37:23.119Z,100.00
2022-09-23T05:38:23.111Z,108.00
2022-09-23T05:39:23.099Z,116.00
2022-09-23T05:40:23.115Z,120.00
2022-09-23T05:41:23.378Z,124.00
2022-09-23T05:42:23.278Z,132.00
2022-09-23T05:43:23.037Z,136.00
2022-09-23T05:44:23.029Z,148.00
2022-09-23T05:45:23.024Z,152.00
2022-09-23T05:46:23.054Z,160.00
2022-09-23T05:47:23.007Z,168.00
2022-09-23T05:48:22.992Z,172.00
2022-09-23T05:49:33.221Z,180.00
2022-09-23T05:50:23.959Z,184.00
2022-09-23T05:51:25.467Z,192.00
2022-09-23T05:52:22.962Z,196.00
2022-09-23T05:53:22.940Z,204.00
2022-09-23T05:54:22.911Z,212.00
2022-09-23T05:55:22.910Z,216.00
2022-09-23T05:56:22.880Z,220.00
2022-09-23T05:57:23.118Z,224.00
2022-09-23T05:58:22.905Z,228.00
2022-09-23T05:59:22.866Z,232.00
2022-09-23T06:00:22.860Z,236.00
2022-09-23T06:01:22.871Z,240.00
2022-09-23T06:02:22.903Z,244.00
2022-09-23T06:03:22.856Z,244.00
2022-09-23T06:04:22.841Z,248.00
2022-09-23T06:05:22.806Z,252.00
2022-09-23T06:06:22.766Z,252.00
2022-09-23T06:07:22.775Z,248.00
2022-09-23T06:08:22.758Z,248.00
2022-09-23T06:09:22.735Z,248.00
2022-09-23T06:10:22.737Z,256.00
2022-09-23T06:11:22.726Z,276.00
2022-09-23T06:12:22.693Z,288.00
2022-09-23T06:13:22.906Z,292.00
2022-09-23T06:14:22.696Z,296.00
2022-09-23T06:15:22.665Z,296.00
2022-09-23T06:16:22.726Z,296.00
2022-09-23T06:17:22.643Z,292.00
2022-09-23T06:18:22.644Z,296.00
2022-09-23T06:19:22.835Z,304.00
2022-09-23T06:20:22.605Z,312.00
2022-09-23T06:21:22.608Z,324.00
2022-09-23T06:22:22.805Z,328.00
2022-09-23T06:23:25.922Z,340.00
2022-09-23T06:24:27.192Z,344.00
2022-09-23T06:25:23.560Z,348.00
2022-09-23T06:26:22.555Z,344.00
2022-09-23T06:27:22.534Z,352.00
2022-09-23T06:28:22.731Z,364.00
2022-09-23T06:29:22.509Z,376.00
2022-09-23T06:30:22.525Z,396.00
2022-09-23T06:31:22.535Z,408.00
2022-09-23T06:32:22.479Z,412.00
2022-09-23T06:33:32.776Z,404.00
2022-09-23T06:34:23.469Z,408.00
2022-09-23T06:35:27.441Z,420.00
2022-09-23T06:36:39.068Z,436.00
2022-09-23T06:37:23.443Z,452.00
2022-09-23T06:38:22.412Z,480.00
2022-09-23T06:39:22.393Z,496.00
2022-09-23T06:40:22.570Z,500.00
2022-09-23T06:41:22.588Z,532.00
2022-09-23T06:42:22.362Z,556.00
2022-09-23T06:43:22.340Z,588.00
2022-09-23T06:44:22.343Z,608.00
2022-09-23T06:45:22.324Z,648.00
2022-09-23T06:46:22.638Z,680.00
2022-09-23T06:47:22.304Z,728.00
2022-09-23T06:48:22.291Z,776.00
2022-09-23T06:49:22.262Z,808.00
2022-09-23T06:50:22.252Z,824.00
2022-09-23T06:51:22.262Z,824.00
2022-09-23T06:52:22.245Z,840.00
2022-09-23T06:53:22.220Z,848.00
2022-09-23T06:54:22.240Z,872.00
2022-09-23T06:55:22.205Z,880.00
2022-09-23T06:56:22.198Z,872.00
2022-09-23T06:57:22.181Z,852.00
2022-09-23T06:58:22.170Z,864.00
2022-09-23T06:59:22.176Z,884.00
2022-09-23T07:00:22.149Z,904.00
2022-09-23T07:01:22.186Z,936.00
2022-09-23T07:02:22.218Z,948.00
2022-09-23T07:03:22.119Z,984.00
2022-09-23T07:04:25.046Z,992.00
2022-09-23T07:05:23.075Z,1024.00
2022-09-23T07:06:22.074Z,1048.00
2022-09-23T07:07:22.374Z,1096.00
2022-09-23T07:08:22.059Z,1132.00
2022-09-23T07:09:22.335Z,1132.00
2022-09-23T07:10:22.039Z,1160.00
2022-09-23T07:11:22.022Z,1156.00
2022-09-23T07:12:22.278Z,1156.00
2022-09-23T07:13:21.990Z,1140.00
2022-09-23T07:14:22.000Z,1188.00
2022-09-23T07:15:21.970Z,1228.00
2022-09-23T07:16:22.293Z,1208.00
2022-09-23T07:17:21.956Z,1212.00
2022-09-23T07:18:21.941Z,1204.00
2022-09-23T07:19:22.231Z,1216.00
2022-09-23T07:20:21.908Z,1176.00
2022-09-23T07:21:21.911Z,1164.00
2022-09-23T07:22:21.905Z,1164.00
2022-09-23T07:23:21.869Z,1172.00
2022-09-23T07:24:22.102Z,1184.00
2022-09-23T07:25:21.863Z,1192.00
2022-09-23T07:26:21.839Z,1168.00
2022-09-23T07:27:21.829Z,1180.00
2022-09-23T07:28:21.819Z,1204.00
2022-09-23T07:29:22.130Z,1216.00
2022-09-23T07:30:25.378Z,1120.00
2022-09-23T07:31:33.991Z,1144.00
2022-09-23T07:32:22.830Z,1164.00
2022-09-23T07:33:31.814Z,1140.00
2022-09-23T07:34:22.781Z,1100.00
2022-09-23T07:35:21.747Z,1092.00
2022-09-23T07:36:21.721Z,1080.00
2022-09-23T07:37:22.025Z,956.00
2022-09-23T07:38:21.716Z,992.00
2022-09-23T07:39:21.694Z,1076.00
2022-09-23T07:40:21.759Z,1096.00
2022-09-23T07:41:21.671Z,1072.00
2022-09-23T07:42:21.916Z,1072.00
2022-09-23T07:43:21.653Z,1080.00
2022-09-23T07:44:21.966Z,1052.00
2022-09-23T07:45:21.604Z,1028.00
2022-09-23T07:46:21.680Z,1020.00
2022-09-23T07:47:21.597Z,1040.00
2022-09-23T07:48:21.914Z,1104.00
2022-09-23T07:49:21.580Z,1172.00
2022-09-23T07:50:21.580Z,1208.00
2022-09-23T07:51:21.664Z,1256.00
2022-09-23T07:52:21.548Z,1260.00
2022-09-23T07:53:21.830Z,1352.00
2022-09-23T07:54:21.519Z,1388.00
2022-09-23T07:55:21.497Z,1416.00
2022-09-23T07:56:21.790Z,1404.00
2022-09-23T07:57:21.489Z,1364.00
2022-09-23T07:58:21.479Z,1344.00
2022-09-23T07:59:21.461Z,1336.00
2022-09-23T08:00:21.439Z,1308.00
2022-09-23T08:01:21.480Z,1332.00
2022-09-23T08:02:21.497Z,1340.00
2022-09-23T08:03:21.399Z,1368.00
2022-09-23T08:04:21.684Z,1380.00
2022-09-23T08:05:21.396Z,1372.00
2022-09-23T08:06:21.384Z,1384.00
2022-09-23T08:07:21.375Z,1384.00
2022-09-23T08:08:21.362Z,1380.00
2022-09-23T08:09:21.646Z,1400.00
2022-09-23T08:10:21.363Z,1360.00
2022-09-23T08:11:21.311Z,1388.00
2022-09-23T08:12:21.621Z,1440.00
2022-09-23T08:13:21.305Z,1460.00
2022-09-23T08:14:21.562Z,1484.00
2022-09-23T08:15:21.275Z,1524.00
2022-09-23T08:16:21.540Z,1564.00
2022-09-23T08:17:21.256Z,1632.00
2022-09-23T08:18:21.233Z,1656.00
2022-09-23T08:19:21.215Z,1704.00
2022-09-23T08:20:21.213Z,1748.00
2022-09-23T08:21:21.227Z,1772.00
2022-09-23T08:22:21.205Z,1740.00
2022-09-23T08:23:21.186Z,1700.00
2022-09-23T08:24:21.184Z,1708.00
2022-09-23T08:25:22.670Z,1712.00
2022-09-23T08:26:22.448Z,1740.00
2022-09-23T08:27:21.459Z,1740.00
2022-09-23T08:28:21.116Z,1744.00
2022-09-23T08:29:21.130Z,1732.00
2022-09-23T08:30:21.094Z,1780.00
2022-09-23T08:31:21.090Z,1756.00
2022-09-23T08:32:21.096Z,1772.00
2022-09-23T08:33:23.550Z,1740.00
2022-09-23T08:34:21.073Z,1716.00
2022-09-23T08:35:21.028Z,1708.00
2022-09-23T08:36:21.028Z,1676.00
2022-09-23T08:37:21.292Z,1608.00
2022-09-23T08:38:21.039Z,1568.00
2022-09-23T08:39:21.006Z,1564.00
2022-09-23T08:40:21.024Z,1576.00
2022-09-23T08:41:20.963Z,1600.00
2022-09-23T08:42:20.974Z,1672.00
2022-09-23T08:43:21.142Z,1656.00
2022-09-23T08:44:20.961Z,1676.00
2022-09-23T08:45:20.930Z,1696.00
2022-09-23T08:46:20.946Z,1684.00
2022-09-23T08:47:20.902Z,1696.00
2022-09-23T08:48:20.905Z,1672.00
2022-09-23T08:49:20.905Z,1648.00
2022-09-23T08:50:20.952Z,1652.00
2022-09-23T08:51:20.888Z,1636.00
2022-09-23T08:52:20.843Z,1644.00
2022-09-23T08:53:20.847Z,1640.00
2022-09-23T08:54:20.824Z,1644.00
2022-09-23T08:55:20.812Z,1672.00
2022-09-23T08:56:20.812Z,1684.00
2022-09-23T08:57:21.111Z,1684.00
2022-09-23T08:58:25.381Z,1712.00
2022-09-23T08:59:21.776Z,1736.00
2022-09-23T09:00:20.851Z,1732.00
2022-09-23T09:01:20.765Z,1748.00
2022-09-23T09:02:20.805Z,1720.00
2022-09-23T09:03:21.049Z,1724.00
2022-09-23T09:04:20.733Z,1720.00
2022-09-23T09:05:20.710Z,1692.00
2022-09-23T09:06:20.690Z,1696.00
2022-09-23T09:07:37.377Z,1668.00
2022-09-23T09:08:21.657Z,1688.00
2022-09-23T09:09:20.976Z,1700.00
2022-09-23T09:10:20.694Z,1740.00
2022-09-23T09:11:20.632Z,1740.00
2022-09-23T09:12:20.932Z,1768.00
2022-09-23T09:13:20.613Z,1780.00
2022-09-23T09:14:20.615Z,1820.00
2022-09-23T09:15:20.781Z,1832.00
2022-09-23T09:16:31.662Z,1852.00
2022-09-23T09:17:21.554Z,1876.00
2022-09-23T09:18:20.562Z,1840.00
2022-09-23T09:19:20.531Z,1852.00
2022-09-23T09:20:20.543Z,1832.00
2022-09-23T09:21:20.536Z,1812.00
2022-09-23T09:22:20.501Z,1836.00
2022-09-23T09:23:20.512Z,1844.00
2022-09-23T09:24:20.487Z,1856.00
2022-09-23T09:25:20.476Z,1880.00
2022-09-23T09:26:20.451Z,1908.00
2022-09-23T09:27:20.446Z,1956.00
2022-09-23T09:28:20.438Z,1968.00
2022-09-23T09:29:34.709Z,1968.00
2022-09-23T09:30:21.404Z,1968.00
2022-09-23T09:31:20.414Z,1980.00
2022-09-23T09:32:20.376Z,1980.00
2022-09-23T09:33:20.380Z,1980.00
2022-09-23T09:34:20.356Z,1956.00
2022-09-23T09:35:20.358Z,1928.00
2022-09-23T09:36:20.555Z,1912.00
2022-09-23T09:37:20.352Z,1892.00
2022-09-23T09:38:20.309Z,1888.00
2022-09-23T09:39:25.469Z,1876.00
2022-09-23T09:40:21.392Z,1872.00
2022-09-23T09:41:20.295Z,1856.00
2022-09-23T09:42:20.581Z,1848.00
2022-09-23T09:43:20.254Z,1872.00
2022-09-23T09:44:20.253Z,1864.00
2022-09-23T09:45:20.220Z,1856.00
2022-09-23T09:46:20.267Z,1852.00
2022-09-23T09:47:20.200Z,1844.00
2022-09-23T09:48:20.491Z,1844.00
2022-09-23T09:49:20.180Z,1844.00
2022-09-23T09:50:20.168Z,1852.00
2022-09-23T09:51:20.163Z,1852.00
2022-09-23T09:52:20.150Z,1836.00
2022-09-23T09:53:20.113Z,1840.00
2022-09-23T09:54:20.363Z,1852.00
2022-09-23T09:55:27.058Z,1868.00
2022-09-23T09:56:20.059Z,1900.00
2022-09-23T09:57:20.040Z,1944.00
2022-09-23T09:58:20.017Z,1984.00
2022-09-23T09:59:20.009Z,2016.00
2022-09-23T10:00:20.010Z,2028.00
2022-09-23T10:01:20.053Z,2056.00
2022-09-23T10:02:19.974Z,2080.00
2022-09-23T10:03:19.967Z,2076.00
2022-09-23T10:04:19.995Z,2072.00
2022-09-23T10:05:19.943Z,2096.00
2022-09-23T10:06:19.925Z,2120.00
2022-09-23T10:07:20.171Z,2148.00
2022-09-23T10:08:19.915Z,2116.00
2022-09-23T10:09:19.888Z,2108.00
2022-09-23T10:10:31.919Z,2140.00
2022-09-23T10:11:21.177Z,2236.00
2022-09-23T10:12:19.860Z,2356.00
2022-09-23T10:13:19.837Z,2388.00
2022-09-23T10:14:19.826Z,2408.00
2022-09-23T10:15:19.831Z,2456.00
2022-09-23T10:16:19.847Z,2416.00
2022-09-23T10:17:19.821Z,2396.00
2022-09-23T10:18:19.792Z,2328.00
2022-09-23T10:19:19.780Z,2288.00
2022-09-23T10:20:19.768Z,2296.00
2022-09-23T10:21:23.021Z,2308.00
2022-09-23T10:22:20.979Z,2288.00
2022-09-23T10:23:19.732Z,2292.00
2022-09-23T10:24:19.724Z,2288.00
2022-09-23T10:25:19.703Z,2296.00
2022-09-23T10:26:19.691Z,2324.00
2022-09-23T10:27:20.001Z,2360.00
2022-09-23T10:28:19.662Z,2388.00
2022-09-23T10:29:19.644Z,2404.00
2022-09-23T10:30:19.656Z,2388.00
2022-09-23T10:31:19.638Z,2344.00
2022-09-23T10:32:19.654Z,2340.00
2022-09-23T10:33:19.617Z,2324.00
2022-09-23T10:34:19.609Z,2328.00
2022-09-23T10:35:19.577Z,2332.00
2022-09-23T10:36:19.574Z,2344.00
2022-09-23T10:37:19.576Z,2368.00
2022-09-23T10:38:19.789Z,2340.00
2022-09-23T10:39:19.537Z,2352.00
2022-09-23T10:40:19.576Z,2332.00
2022-09-23T10:41:19.512Z,2280.00
2022-09-23T10:42:19.525Z,2228.00
2022-09-23T10:43:19.702Z,2196.00
2022-09-23T10:44:19.486Z,2160.00
2022-09-23T10:45:19.515Z,2176.00
2022-09-23T10:46:19.510Z,2204.00
2022-09-23T10:47:19.469Z,2220.00
2022-09-23T10:48:19.436Z,2280.00
2022-09-23T10:49:19.429Z,2344.00
2022-09-23T10:50:19.438Z,2376.00
2022-09-23T10:51:24.081Z,2380.00
2022-09-23T10:52:20.411Z,2340.00
2022-09-23T10:53:19.390Z,2420.00
2022-09-23T10:54:19.370Z,2432.00
2022-09-23T10:55:19.670Z,2408.00
2022-09-23T10:56:19.352Z,2344.00
2022-09-23T10:57:19.344Z,2292.00
2022-09-23T10:58:19.346Z,2284.00
2022-09-23T10:59:19.325Z,2316.00
2022-09-23T11:00:19.629Z,2360.00
2022-09-23T11:01:19.643Z,2404.00
2022-09-23T11:02:19.308Z,2468.00
2022-09-23T11:03:19.287Z,2428.00
2022-09-23T11:04:19.321Z,2408.00
2022-09-23T11:05:19.250Z,2380.00
2022-09-23T11:06:19.257Z,2372.00
2022-09-23T11:07:19.251Z,2340.00
2022-09-23T11:08:19.234Z,2320.00
2022-09-23T11:09:19.211Z,2284.00
2022-09-23T11:10:35.410Z,2264.00
2022-09-23T11:11:20.206Z,2208.00
2022-09-23T11:12:19.174Z,2144.00
2022-09-23T11:13:19.386Z,2116.00
2022-09-23T11:14:19.170Z,2064.00
2022-09-23T11:15:19.146Z,2016.00
2022-09-23T11:16:19.200Z,1980.00
2022-09-23T11:17:19.140Z,2016.00
2022-09-23T11:18:19.134Z,2136.00
2022-09-23T11:19:19.132Z,2124.00
2022-09-23T11:20:19.112Z,2132.00
2022-09-23T11:21:19.084Z,2140.00
2022-09-23T11:22:19.094Z,2156.00
2022-09-23T11:23:19.063Z,2204.00
2022-09-23T11:24:19.052Z,2260.00
2022-09-23T11:25:19.048Z,2288.00
2022-09-23T11:26:19.035Z,2348.00
2022-09-23T11:27:19.047Z,2404.00
2022-09-23T11:28:19.009Z,2436.00
2022-09-23T11:29:18.987Z,2500.00
2022-09-23T11:30:18.978Z,2532.00
2022-09-23T11:31:19.020Z,2568.00
2022-09-23T11:32:18.960Z,2652.00
2022-09-23T11:33:19.149Z,2636.00
2022-09-23T11:34:18.947Z,2664.00
2022-09-23T11:35:18.945Z,2628.00
2022-09-23T11:36:18.910Z,2652.00
2022-09-23T11:37:18.915Z,2632.00
2022-09-23T11:38:19.159Z,2584.00
2022-09-23T11:39:18.915Z,2532.00
2022-09-23T11:40:45.633Z,2508.00
2022-09-23T11:41:19.009Z,2488.00
2022-09-23T11:42:18.844Z,2540.00
2022-09-23T11:43:19.044Z,2540.00
2022-09-23T11:44:18.838Z,2628.00
2022-09-23T11:45:19.039Z,2596.00
2022-09-23T11:46:18.869Z,2588.00
2022-09-23T11:47:18.786Z,2536.00
2022-09-23T11:48:18.801Z,2544.00
2022-09-23T11:49:18.778Z,2512.00
2022-09-23T11:50:18.786Z,2504.00
2022-09-23T11:51:18.749Z,2548.00
2022-09-23T11:52:18.756Z,2564.00
2022-09-23T11:53:18.716Z,2436.00
2022-09-23T11:54:20.743Z,2324.00
2022-09-23T11:55:22.787Z,2312.00
2022-09-23T11:56:29.431Z,2228.00
2022-09-23T11:57:20.009Z,2124.00
2022-09-23T11:58:25.404Z,2080.00
2022-09-23T11:59:24.798Z,2132.00
2022-09-23T12:00:19.661Z,2260.00
2022-09-23T12:01:23.520Z,2252.00
2022-09-23T12:02:21.690Z,2268.00
2022-09-23T12:03:18.750Z,2224.00
2022-09-23T12:04:21.173Z,2176.00
2022-09-23T12:05:18.713Z,2120.00
2022-09-23T12:06:18.897Z,2104.00
2022-09-23T12:07:18.547Z,2064.00
2022-09-23T12:08:18.572Z,2072.00
2022-09-23T12:09:24.109Z,2000.00
2022-09-23T12:10:19.532Z,1980.00
2022-09-23T12:11:18.522Z,1968.00
2022-09-23T12:12:18.775Z,1956.00
2022-09-23T12:13:18.481Z,2004.00
2022-09-23T12:14:18.503Z,1928.00
2022-09-23T12:15:18.487Z,1924.00
2022-09-23T12:16:18.523Z,1948.00
2022-09-23T12:17:18.671Z,1892.00
2022-09-23T12:18:22.961Z,1952.00
2022-09-23T12:19:18.414Z,2024.00
2022-09-23T12:20:18.414Z,1972.00
2022-09-23T12:21:45.817Z,1900.00
2022-09-23T12:22:19.435Z,1948.00
2022-09-23T12:23:18.407Z,2288.00
2022-09-23T12:24:19.356Z,2104.00
2022-09-23T12:25:18.347Z,2348.00
2022-09-23T12:26:18.336Z,2164.00
2022-09-23T12:27:18.319Z,2192.00
2022-09-23T12:28:18.324Z,2216.00
2022-09-23T12:29:18.657Z,2240.00
2022-09-23T12:30:18.494Z,2256.00
2022-09-23T12:31:18.362Z,2312.00
2022-09-23T12:32:18.283Z,2320.00
2022-09-23T12:33:18.264Z,2376.00
2022-09-23T12:34:18.265Z,2420.00
2022-09-23T12:35:18.245Z,2500.00
2022-09-23T12:36:18.465Z,2472.00
2022-09-23T12:37:18.226Z,2524.00
2022-09-23T12:38:18.208Z,2572.00